Terminal Aerodrome Forecast
Issued by NWS Caribou, ME

Home | Current Version | Previous Version | Text Only | Print | Product List | Glossary On
Versions: 1 2 3 4 5 6 7 8 9 10 11 12 13 14
000
FTUS41 KCAR 191100
TAFBGR
TAF
KBGR 191124Z 1912/2012 24006KT P6SM SCT025 OVC050
     FM191600 30012G22KT P6SM BKN040
     FM191800 32012G22KT P6SM SCT050
     FM200100 32008KT P6SM SCT050=

USA.gov is the U.S. government's official web portal to all federal, state and local government web resources and services.